Time;durP1;ratioP1;P1;durP2;ratioP2;P2;SDS_P1;SDS_P2;PMS_P1;PMS_P2;Temp;Humidity;BMP_temperature;BMP_pressure;BME280_temperature;BME280_humidity;BME280_pressure;Samples;Min_cycle;Max_cycle;Signal;HPM_P1;HPM_P2
2021/01/29 00:01:18;;;;;;;21.27;4.07;;;;;;;;;;5062002;22;20052;-89
2021/01/29 00:03:45;;;;;;;22.92;4.18;;;;;;;;;;5085971;22;20064;-95
2021/01/29 00:06:12;;;;;;;27.25;4.15;;;;;;;;;;5030604;22;20042;-96
2021/01/29 00:08:40;;;;;;;23.13;4.00;;;;;;;;;;5058313;22;20308;-94
2021/01/29 00:11:07;;;;;;;19.15;3.20;;;;;;;;;;5017008;28;20037;-94
2021/01/29 00:13:34;;;;;;;25.73;5.25;;;;;;;;;;5016759;28;20188;-92
2021/01/29 00:16:01;;;;;;;22.30;4.32;;;;;;;;;;5015843;28;20042;-96
2021/01/29 00:18:28;;;;;;;25.33;3.42;;;;;;;;;;5049958;23;20045;-96
2021/01/29 00:20:55;;;;;;;23.25;4.55;;;;;;;;;;5035007;28;20030;-96
2021/01/29 00:23:22;;;;;;;20.05;2.25;;;;;;;;;;5037858;28;20057;-96
2021/01/29 00:25:52;;;;;;;21.45;3.72;;;;;;;;;;5034975;28;20030;-96
2021/01/29 00:28:20;;;;;;;21.02;2.72;;;;;;;;;;5037016;28;20597;-93
2021/01/29 00:30:49;;;;;;;21.73;2.90;;;;;;;;;;5027118;28;20036;-96
2021/01/29 00:33:17;;;;;;;25.15;3.75;;;;;;;;;;5018705;28;20037;-96
2021/01/29 00:35:44;;;;;;;20.60;3.28;;;;;;;;;;5065597;22;20154;-96
2021/01/29 00:38:11;;;;;;;20.80;3.13;;;;;;;;;;5048413;28;20176;-96
2021/01/29 00:40:39;;;;;;;20.05;3.53;;;;;;;;;;5028459;28;20014;-96
2021/01/29 00:43:07;;;;;;;33.03;3.17;;;;;;;;;;5021486;28;20462;-91
2021/01/29 00:45:35;;;;;;;27.83;4.72;;;;;;;;;;5028296;28;20029;-87
2021/01/29 00:48:03;;;;;;;19.88;3.38;;;;;;;;;;5019305;28;20030;-96
2021/01/29 00:50:30;;;;;;;28.67;4.10;;;;;;;;;;5025990;28;20060;-95
2021/01/29 00:52:57;;;;;;;25.50;3.75;;;;;;;;;;5036115;28;20041;-93
2021/01/29 00:55:24;;;;;;;25.33;4.03;;;;;;;;;;5042129;28;20041;-94
2021/01/29 00:57:52;;;;;;;24.05;3.97;;;;;;;;;;5052182;28;20042;-93
2021/01/29 01:00:19;;;;;;;27.70;4.25;;;;;;;;;;5044555;28;20531;-94
2021/01/29 01:02:46;;;;;;;28.17;3.85;;;;;;;;;;5034919;28;20080;-92
2021/01/29 01:05:14;;;;;;;26.45;3.80;;;;;;;;;;5037617;28;20380;-93
2021/01/29 01:07:42;;;;;;;29.75;3.85;;;;;;;;;;5049643;22;20053;-84
2021/01/29 01:10:09;;;;;;;20.73;3.75;;;;;;;;;;5026584;28;20069;-93
2021/01/29 01:12:36;;;;;;;25.45;3.83;;;;;;;;;;5030884;28;20045;-93
2021/01/29 01:15:12;;;;;;;33.13;4.80;;;;;;;;;;5030704;28;20033;-93
2021/01/29 01:17:40;;;;;;;22.52;3.08;;;;;;;;;;5035213;28;20041;-94
2021/01/29 01:20:09;;;;;;;20.70;3.45;;;;;;;;;;5034965;28;20054;-93
2021/01/29 01:22:36;;;;;;;29.17;4.80;;;;;;;;;;5032949;28;20045;-94
2021/01/29 01:25:04;;;;;;;28.05;4.38;;;;;;;;;;5034471;28;20030;-96
2021/01/29 01:27:31;;;;;;;32.33;4.03;;;;;;;;;;5036110;28;20454;-95
2021/01/29 01:29:58;;;;;;;28.42;3.95;;;;;;;;;;5033759;28;20037;-94
2021/01/29 01:32:25;;;;;;;34.35;4.25;;;;;;;;;;5025554;28;20048;-95
2021/01/29 01:34:53;;;;;;;37.13;4.65;;;;;;;;;;5033968;28;20030;-95
2021/01/29 01:37:20;;;;;;;24.77;3.92;;;;;;;;;;5032184;28;20176;-94
2021/01/29 01:39:47;;;;;;;29.08;4.60;;;;;;;;;;5035100;28;20033;-95
2021/01/29 01:42:14;;;;;;;41.53;5.57;;;;;;;;;;5032027;28;20041;-95
2021/01/29 01:44:42;;;;;;;25.40;4.38;;;;;;;;;;5019585;28;20026;-94
2021/01/29 01:47:09;;;;;;;29.35;5.45;;;;;;;;;;5031481;28;20037;-95
2021/01/29 01:49:37;;;;;;;27.63;5.43;;;;;;;;;;5033517;28;20045;-93
2021/01/29 01:52:09;;;;;;;30.25;5.45;;;;;;;;;;5035995;28;20475;-94
2021/01/29 01:54:52;;;;;;;27.70;4.55;;;;;;;;;;5044577;28;20049;-96
2021/01/29 01:57:20;;;;;;;35.00;5.18;;;;;;;;;;5034735;28;20053;-95
2021/01/29 01:59:49;;;;;;;33.15;5.10;;;;;;;;;;5043102;28;20099;-96
2021/01/29 02:02:20;;;;;;;33.63;5.03;;;;;;;;;;5033223;28;20048;-96
2021/01/29 02:04:47;;;;;;;26.45;4.75;;;;;;;;;;5028572;28;20042;-95
2021/01/29 02:07:19;;;;;;;17.40;3.40;;;;;;;;;;5042183;28;20070;-95
2021/01/29 02:09:48;;;;;;;25.13;4.25;;;;;;;;;;5088396;22;20068;-96
2021/01/29 02:12:15;;;;;;;36.03;5.97;;;;;;;;;;5072553;22;20049;-94
2021/01/29 02:14:42;;;;;;;33.75;5.13;;;;;;;;;;5036769;28;20025;-96
2021/01/29 02:17:12;;;;;;;29.77;3.97;;;;;;;;;;5070647;22;20514;-96
2021/01/29 02:19:39;;;;;;;35.95;4.60;;;;;;;;;;5057983;28;20029;-94
2021/01/29 02:22:24;;;;;;;25.52;4.22;;;;;;;;;;5070420;28;20036;-95
2021/01/29 02:25:06;;;;;;;34.10;5.53;;;;;;;;;;5078844;22;20041;-94
2021/01/29 02:28:00;;;;;;;32.60;5.80;;;;;;;;;;5036371;28;20102;-94
2021/01/29 02:30:37;;;;;;;25.48;4.43;;;;;;;;;;5030572;28;20119;-93
2021/01/29 02:33:10;;;;;;;33.58;4.80;;;;;;;;;;5001298;28;20485;-95
2021/01/29 02:35:56;;;;;;;22.13;3.78;;;;;;;;;;5007914;28;20141;-89
2021/01/29 02:38:35;;;;;;;24.88;5.15;;;;;;;;;;5019649;28;20052;-90
2021/01/29 02:41:05;;;;;;;37.63;5.85;;;;;;;;;;5005961;28;20400;-89
2021/01/29 02:43:38;;;;;;;28.02;3.88;;;;;;;;;;5069606;22;20854;-89
2021/01/29 02:46:28;;;;;;;30.98;5.68;;;;;;;;;;5053581;28;20033;-87
2021/01/29 02:49:04;;;;;;;39.03;6.07;;;;;;;;;;5031563;28;20033;-88
2021/01/29 02:51:40;;;;;;;33.33;5.53;;;;;;;;;;5042258;28;20032;-86
2021/01/29 02:54:19;;;;;;;33.25;4.97;;;;;;;;;;5037709;28;20033;-87
2021/01/29 02:56:56;;;;;;;32.15;5.22;;;;;;;;;;5045833;28;20052;-87
2021/01/29 02:59:38;;;;;;;28.52;4.03;;;;;;;;;;5048097;28;20029;-87
2021/01/29 03:02:13;;;;;;;28.45;4.32;;;;;;;;;;5039654;28;20060;-86
2021/01/29 03:04:44;;;;;;;26.23;4.78;;;;;;;;;;5047910;28;20068;-86
2021/01/29 03:07:19;;;;;;;20.25;3.15;;;;;;;;;;5051158;28;20057;-88
2021/01/29 03:10:10;;;;;;;18.90;3.58;;;;;;;;;;5053000;28;20029;-90
2021/01/29 03:12:48;;;;;;;22.63;4.15;;;;;;;;;;5033729;28;20037;-86
2021/01/29 03:58:03;;;;;;;22.60;2.28;;;;;;;;;;3391907;26;20037;-80
2021/01/29 04:00:36;;;;;;;25.77;3.15;;;;;;;;;;5042108;28;20029;-82
2021/01/29 04:03:18;;;;;;;23.45;3.70;;;;;;;;;;5048790;28;20033;-82
2021/01/29 04:05:56;;;;;;;23.48;3.35;;;;;;;;;;5047523;28;20033;-83
2021/01/29 04:08:32;;;;;;;25.67;3.55;;;;;;;;;;5046611;28;20128;-85
2021/01/29 04:11:00;;;;;;;18.60;3.40;;;;;;;;;;5049756;28;20029;-83
2021/01/29 04:13:34;;;;;;;18.13;3.38;;;;;;;;;;5050511;28;20418;-82
2021/01/29 04:16:01;;;;;;;28.08;4.22;;;;;;;;;;5048111;22;20490;-84
2021/01/29 04:18:33;;;;;;;25.35;3.13;;;;;;;;;;5086196;22;20461;-84
2021/01/29 04:21:16;;;;;;;27.77;3.85;;;;;;;;;;5075940;22;20406;-85
2021/01/29 04:44:35;;;;;;;25.42;4.00;;;;;;;;;;3395072;26;20033;-86
2021/01/29 04:47:21;;;;;;;27.63;5.23;;;;;;;;;;5046671;28;20498;-83
2021/01/29 04:50:12;;;;;;;29.90;3.63;;;;;;;;;;5057277;22;20507;-84
2021/01/29 04:52:42;;;;;;;32.70;4.63;;;;;;;;;;5030559;28;20099;-87
2021/01/29 04:55:12;;;;;;;24.98;3.70;;;;;;;;;;5022572;28;20087;-84
2021/01/29 04:57:56;;;;;;;25.02;3.63;;;;;;;;;;5020389;28;20048;-84
2021/01/29 05:00:29;;;;;;;25.97;3.87;;;;;;;;;;5046523;28;20035;-83
2021/01/29 05:03:05;;;;;;;24.17;3.70;;;;;;;;;;5051487;28;20033;-85
2021/01/29 05:05:32;;;;;;;28.85;3.47;;;;;;;;;;5045852;28;20083;-84
2021/01/29 05:08:11;;;;;;;29.85;4.05;;;;;;;;;;5031469;28;20049;-90
2021/01/29 05:10:50;;;;;;;28.65;3.90;;;;;;;;;;5039561;28;20037;-86
2021/01/29 05:13:20;;;;;;;26.13;3.30;;;;;;;;;;5033150;28;20034;-85
2021/01/29 05:15:47;;;;;;;18.90;3.35;;;;;;;;;;5035516;28;20037;-86
2021/01/29 05:18:41;;;;;;;21.35;2.60;;;;;;;;;;5034765;28;20091;-88
2021/01/29 05:21:11;;;;;;;26.42;2.40;;;;;;;;;;5040381;28;20041;-87
2021/01/29 05:23:50;;;;;;;26.02;3.15;;;;;;;;;;5083087;22;20057;-86
2021/01/29 05:26:33;;;;;;;18.27;3.10;;;;;;;;;;5074941;28;20029;-86
2021/01/29 05:29:09;;;;;;;23.98;3.25;;;;;;;;;;5076704;28;20036;-90
2021/01/29 05:31:55;;;;;;;23.73;3.13;;;;;;;;;;5079813;28;20085;-89
2021/01/29 05:34:28;;;;;;;19.00;2.50;;;;;;;;;;5081471;28;20131;-83
2021/01/29 05:37:04;;;;;;;16.92;2.20;;;;;;;;;;5073247;28;20036;-85
2021/01/29 05:39:34;;;;;;;13.73;2.58;;;;;;;;;;5074847;28;20040;-89
2021/01/29 05:42:22;;;;;;;18.55;2.88;;;;;;;;;;5072793;28;20491;-89
2021/01/29 05:45:01;;;;;;;22.10;3.20;;;;;;;;;;5056770;28;20067;-88
2021/01/29 05:47:31;;;;;;;25.50;3.30;;;;;;;;;;5054088;28;20478;-85
2021/01/29 05:50:31;;;;;;;23.15;3.95;;;;;;;;;;5074381;28;20063;-85
2021/01/29 05:53:04;;;;;;;26.20;4.07;;;;;;;;;;5027671;28;20041;-86
2021/01/29 05:55:46;;;;;;;19.80;3.47;;;;;;;;;;5047108;28;20037;-85
2021/01/29 05:58:13;;;;;;;21.92;3.17;;;;;;;;;;5054537;28;20044;-86
2021/01/29 06:01:00;;;;;;;19.23;4.20;;;;;;;;;;5052622;28;20029;-86
2021/01/29 06:03:33;;;;;;;23.73;2.90;;;;;;;;;;5074129;28;20047;-86
2021/01/29 06:06:19;;;;;;;28.05;3.70;;;;;;;;;;5069157;28;20039;-83
2021/01/29 06:09:01;;;;;;;22.40;4.53;;;;;;;;;;5059855;28;20047;-84
2021/01/29 06:11:31;;;;;;;18.20;2.92;;;;;;;;;;5081734;28;20028;-85
2021/01/29 06:14:04;;;;;;;19.00;3.53;;;;;;;;;;5080649;28;20478;-86
2021/01/29 06:16:50;;;;;;;24.92;4.15;;;;;;;;;;5080865;28;20040;-86
2021/01/29 06:19:35;;;;;;;26.92;4.43;;;;;;;;;;5072218;28;20064;-86
2021/01/29 06:22:20;;;;;;;19.38;3.40;;;;;;;;;;5048463;28;20126;-84
2021/01/29 06:24:50;;;;;;;26.92;3.20;;;;;;;;;;5033395;22;20040;-85
2021/01/29 06:27:31;;;;;;;20.23;4.43;;;;;;;;;;5096627;22;20080;-86
2021/01/29 06:30:04;;;;;;;24.80;3.92;;;;;;;;;;5052281;28;20043;-86
2021/01/29 06:32:49;;;;;;;27.07;6.63;;;;;;;;;;5078443;22;20056;-86
2021/01/29 06:35:26;;;;;;;27.17;3.92;;;;;;;;;;5043902;28;20028;-85
2021/01/29 06:38:02;;;;;;;25.30;4.90;;;;;;;;;;5072079;28;20094;-87
2021/01/29 06:40:29;;;;;;;22.75;3.45;;;;;;;;;;5050714;22;20049;-86
2021/01/29 06:43:03;;;;;;;27.65;5.10;;;;;;;;;;5035205;28;20033;-86
2021/01/29 06:45:49;;;;;;;27.70;3.47;;;;;;;;;;5045265;28;20052;-87
2021/01/29 06:48:34;;;;;;;24.60;4.40;;;;;;;;;;5031845;28;20399;-87
2021/01/29 06:51:24;;;;;;;25.67;4.45;;;;;;;;;;5038886;28;20400;-87
2021/01/29 06:54:09;;;;;;;28.95;4.45;;;;;;;;;;5022941;28;20040;-88
2021/01/29 06:57:05;;;;;;;31.30;5.57;;;;;;;;;;5076846;22;20125;-87
2021/01/29 06:59:35;;;;;;;30.63;4.43;;;;;;;;;;5041881;28;20590;-86
2021/01/29 07:02:25;;;;;;;31.73;5.32;;;;;;;;;;5071799;28;20123;-86
2021/01/29 07:05:05;;;;;;;37.17;4.00;;;;;;;;;;5048196;28;20044;-86
2021/01/29 07:07:41;;;;;;;32.35;4.22;;;;;;;;;;5048111;28;20032;-85
2021/01/29 07:10:22;;;;;;;40.60;8.00;;;;;;;;;;5069002;28;20075;-85
2021/01/29 07:12:55;;;;;;;28.73;5.80;;;;;;;;;;5072166;28;20083;-85
2021/01/29 07:15:34;;;;;;;41.90;9.38;;;;;;;;;;5065824;28;20032;-88
2021/01/29 07:18:17;;;;;;;35.55;12.00;;;;;;;;;;5072029;28;20044;-87
2021/01/29 07:21:03;;;;;;;39.63;27.58;;;;;;;;;;5071377;28;20045;-84
2021/01/29 07:23:30;;;;;;;33.90;12.45;;;;;;;;;;5072300;28;20033;-84
2021/01/29 07:25:57;;;;;;;30.15;8.15;;;;;;;;;;5071926;28;20090;-85
2021/01/29 07:28:42;;;;;;;21.65;6.20;;;;;;;;;;5071021;28;20036;-83
2021/01/29 07:31:14;;;;;;;26.45;8.68;;;;;;;;;;5061479;22;20053;-83
2021/01/29 07:33:48;;;;;;;25.95;3.45;;;;;;;;;;5034352;28;20120;-83
2021/01/29 07:36:27;;;;;;;24.87;3.77;;;;;;;;;;5052509;28;20047;-84
2021/01/29 07:39:12;;;;;;;19.00;2.83;;;;;;;;;;5052724;28;20029;-83
2021/01/29 07:42:05;;;;;;;23.50;3.55;;;;;;;;;;5043914;28;20044;-84
2021/01/29 07:44:35;;;;;;;22.83;3.28;;;;;;;;;;4995168;28;20132;-83
2021/01/29 07:47:11;;;;;;;26.70;3.08;;;;;;;;;;5051900;28;20033;-84
2021/01/29 07:49:41;;;;;;;26.98;4.38;;;;;;;;;;5014440;28;20112;-83
2021/01/29 07:52:19;;;;;;;28.25;4.30;;;;;;;;;;5047894;28;20053;-82
2021/01/29 07:55:09;;;;;;;30.38;5.10;;;;;;;;;;5051435;28;20029;-83
2021/01/29 07:57:36;;;;;;;26.73;4.25;;;;;;;;;;5041309;28;20159;-83
2021/01/29 08:00:20;;;;;;;29.20;3.58;;;;;;;;;;5042555;28;20029;-83
2021/01/29 08:02:48;;;;;;;29.58;3.97;;;;;;;;;;5047880;28;20059;-82
2021/01/29 08:05:21;;;;;;;22.50;3.58;;;;;;;;;;5051809;28;20124;-83
2021/01/29 08:08:11;;;;;;;27.57;3.40;;;;;;;;;;5051844;28;20033;-84
2021/01/29 08:10:39;;;;;;;20.00;3.20;;;;;;;;;;5041613;28;20065;-84
2021/01/29 08:13:25;;;;;;;22.92;3.42;;;;;;;;;;5051889;28;20391;-82
2021/01/29 08:16:10;;;;;;;18.00;2.75;;;;;;;;;;5046379;28;20501;-82
2021/01/29 08:18:45;;;;;;;15.88;2.33;;;;;;;;;;5051858;28;20044;-82
2021/01/29 08:21:34;;;;;;;14.07;2.35;;;;;;;;;;5052161;28;20035;-82
2021/01/29 08:24:22;;;;;;;15.02;2.22;;;;;;;;;;5033886;28;20041;-82
2021/01/29 08:26:49;;;;;;;17.55;2.55;;;;;;;;;;5011401;28;20033;-82
2021/01/29 08:43:10;;;;;;;14.07;2.55;;;;;;;;;;1413933;26;20041;-82
2021/01/29 08:45:44;;;;;;;18.50;3.35;;;;;;;;;;5048013;28;20047;-82
2021/01/29 08:48:23;;;;;;;25.98;3.80;;;;;;;;;;5049200;22;20102;-83
2021/01/29 08:50:53;;;;;;;24.40;3.80;;;;;;;;;;5008730;28;20480;-82
2021/01/29 08:53:38;;;;;;;33.78;3.40;;;;;;;;;;5029681;28;20037;-82
2021/01/29 08:56:18;;;;;;;24.13;3.63;;;;;;;;;;5034670;28;20107;-82
2021/01/29 08:59:05;;;;;;;29.70;4.95;;;;;;;;;;5009301;28;20104;-82
2021/01/29 09:01:39;;;;;;;31.48;5.25;;;;;;;;;;5022695;28;20462;-82
2021/01/29 09:04:09;;;;;;;35.88;5.55;;;;;;;;;;5049794;22;20577;-83
2021/01/29 09:06:44;;;;;;;31.52;5.38;;;;;;;;;;5030386;28;20047;-82
2021/01/29 09:09:20;;;;;;;28.20;5.55;;;;;;;;;;5017742;28;20121;-81
2021/01/29 09:11:49;;;;;;;34.80;5.03;;;;;;;;;;5032185;28;20030;-82
2021/01/29 09:14:22;;;;;;;34.35;4.30;;;;;;;;;;5024154;28;20033;-82
2021/01/29 09:16:49;;;;;;;33.97;4.93;;;;;;;;;;5000373;28;20049;-82
2021/01/29 09:19:18;;;;;;;33.00;5.07;;;;;;;;;;5015466;28;20037;-82
2021/01/29 09:21:55;;;;;;;29.48;5.80;;;;;;;;;;5029349;28;20480;-83
2021/01/29 09:24:22;;;;;;;23.35;4.40;;;;;;;;;;5033462;28;20034;-82
2021/01/29 09:27:07;;;;;;;34.33;5.20;;;;;;;;;;5034599;28;20061;-82
2021/01/29 09:29:40;;;;;;;34.80;4.32;;;;;;;;;;5032975;28;20037;-82
2021/01/29 09:32:09;;;;;;;28.73;4.20;;;;;;;;;;5033811;28;20091;-82
2021/01/29 09:34:36;;;;;;;18.45;2.78;;;;;;;;;;5016251;28;20069;-82
2021/01/29 10:36:36;;;;;;;6.60;1.55;;;;;;;;;;3318116;26;20678;-82
2021/01/29 11:10:09;;;;;;;6.95;1.42;;;;;;;;;;5054896;28;20056;-85
2021/01/29 11:12:39;;;;;;;14.77;3.33;;;;;;;;;;5067404;22;20139;-85
2021/01/29 11:15:10;;;;;;;7.88;1.63;;;;;;;;;;5070334;28;20043;-85
2021/01/29 11:17:41;;;;;;;6.72;1.65;;;;;;;;;;5069213;28;20098;-84
2021/01/29 11:20:19;;;;;;;12.63;2.38;;;;;;;;;;5073240;28;20044;-84
2021/01/29 11:23:08;;;;;;;11.15;1.70;;;;;;;;;;5052772;28;20465;-85
2021/01/29 11:25:50;;;;;;;10.98;1.88;;;;;;;;;;5057202;28;20044;-86
2021/01/29 11:28:24;;;;;;;10.55;2.30;;;;;;;;;;5068752;28;20032;-85
2021/01/29 11:30:54;;;;;;;10.43;2.13;;;;;;;;;;5068414;28;20029;-86
2021/01/29 11:33:31;;;;;;;10.25;1.73;;;;;;;;;;5072040;28;20032;-85
2021/01/29 11:36:07;;;;;;;15.30;3.10;;;;;;;;;;5071548;28;20045;-84
2021/01/29 11:38:37;;;;;;;15.45;2.53;;;;;;;;;;5071214;28;20127;-84
2021/01/29 11:41:10;;;;;;;20.45;4.45;;;;;;;;;;5068381;28;20052;-85
2021/01/29 11:43:40;;;;;;;26.77;4.57;;;;;;;;;;5053874;28;20078;-85
2021/01/29 11:46:10;;;;;;;35.20;5.43;;;;;;;;;;5076058;22;20122;-84
2021/01/29 11:48:41;;;;;;;29.65;5.50;;;;;;;;;;5057410;28;20029;-84
2021/01/29 11:51:14;;;;;;;34.47;6.10;;;;;;;;;;5050352;28;20033;-84
2021/01/29 11:53:49;;;;;;;29.70;5.25;;;;;;;;;;5055547;28;20107;-84
2021/01/29 11:56:16;;;;;;;32.22;4.65;;;;;;;;;;5058294;28;20044;-84
2021/01/29 11:58:46;;;;;;;33.63;4.60;;;;;;;;;;5055532;28;20075;-84
2021/01/29 12:01:22;;;;;;;26.05;4.97;;;;;;;;;;5062558;28;20036;-84
2021/01/29 12:03:55;;;;;;;15.73;3.47;;;;;;;;;;5051325;28;20082;-84
2021/01/29 12:06:25;;;;;;;21.70;4.10;;;;;;;;;;5051707;28;20037;-84
2021/01/29 12:09:00;;;;;;;20.58;4.53;;;;;;;;;;5034353;28;20037;-85
2021/01/29 12:11:32;;;;;;;14.00;4.18;;;;;;;;;;5039829;28;20127;-85
2021/01/29 12:14:05;;;;;;;13.27;2.95;;;;;;;;;;5050974;28;20116;-84
2021/01/29 12:16:34;;;;;;;15.52;3.75;;;;;;;;;;5051064;28;20079;-84
2021/01/29 12:19:03;;;;;;;13.98;2.80;;;;;;;;;;5048051;28;20430;-85
2021/01/29 12:21:52;;;;;;;18.33;3.22;;;;;;;;;;5052523;28;20033;-83
2021/01/29 12:24:34;;;;;;;9.07;2.05;;;;;;;;;;5054360;28;20041;-85
2021/01/29 12:27:04;;;;;;;15.30;2.70;;;;;;;;;;5034253;28;20060;-84
2021/01/29 12:29:39;;;;;;;21.42;4.25;;;;;;;;;;5040546;28;20033;-84
2021/01/29 12:32:28;;;;;;;23.70;3.42;;;;;;;;;;5051198;28;20036;-82
2021/01/29 12:35:12;;;;;;;30.65;5.90;;;;;;;;;;5049784;28;20029;-84
2021/01/29 12:37:58;;;;;;;31.42;5.55;;;;;;;;;;5035747;28;20068;-84
2021/01/29 12:40:31;;;;;;;30.40;7.07;;;;;;;;;;5046884;28;20120;-84
2021/01/29 12:43:03;;;;;;;25.45;5.70;;;;;;;;;;5052820;28;20025;-85
2021/01/29 12:48:06;;;;;;;24.25;4.32;;;;;;;;;;5064019;22;20613;-85
2021/01/29 12:50:52;;;;;;;26.30;4.32;;;;;;;;;;5051315;22;20103;-85
2021/01/29 12:53:19;;;;;;;28.63;5.18;;;;;;;;;;5050138;22;20037;-85
2021/01/29 12:55:48;;;;;;;25.45;3.92;;;;;;;;;;5032188;28;20063;-85
2021/01/29 12:58:17;;;;;;;23.17;4.18;;;;;;;;;;5031840;28;20071;-84
2021/01/29 13:00:45;;;;;;;25.55;4.38;;;;;;;;;;5049795;28;20036;-84
2021/01/29 13:03:12;;;;;;;20.67;4.93;;;;;;;;;;5068322;22;20069;-86
2021/01/29 13:05:57;;;;;;;26.25;4.18;;;;;;;;;;5046207;28;20144;-85
2021/01/29 13:08:24;;;;;;;23.05;4.40;;;;;;;;;;5024919;28;20041;-84
2021/01/29 13:11:04;;;;;;;25.52;4.05;;;;;;;;;;5051606;28;20036;-84
2021/01/29 13:13:38;;;;;;;29.70;5.18;;;;;;;;;;5047683;28;20256;-83
2021/01/29 13:16:05;;;;;;;22.00;4.00;;;;;;;;;;5032393;28;20025;-83
2021/01/29 13:18:32;;;;;;;28.60;4.68;;;;;;;;;;5046548;28;20507;-84
2021/01/29 13:21:06;;;;;;;35.83;5.97;;;;;;;;;;5038957;23;20089;-84
2021/01/29 13:23:33;;;;;;;41.38;6.13;;;;;;;;;;5029034;28;20041;-83
2021/01/29 13:26:06;;;;;;;43.58;6.57;;;;;;;;;;5012883;28;20041;-84
2021/01/29 13:28:36;;;;;;;38.22;5.82;;;;;;;;;;5010269;28;20033;-84
2021/01/29 13:31:14;;;;;;;40.83;6.63;;;;;;;;;;5030641;28;20502;-84
2021/01/29 13:33:49;;;;;;;51.05;7.47;;;;;;;;;;5013488;28;20037;-84
2021/01/29 13:36:23;;;;;;;53.55;7.90;;;;;;;;;;5034049;28;20083;-83
2021/01/29 13:38:51;;;;;;;54.60;7.95;;;;;;;;;;5034469;28;20095;-84
2021/01/29 13:41:36;;;;;;;48.97;7.78;;;;;;;;;;5012985;28;20030;-84
2021/01/29 13:44:19;;;;;;;55.70;7.82;;;;;;;;;;5025047;28;20201;-84
2021/01/29 13:46:50;;;;;;;51.17;8.30;;;;;;;;;;5033332;28;20095;-83
2021/01/29 13:49:23;;;;;;;45.22;8.77;;;;;;;;;;5016559;28;20030;-84
2021/01/29 14:04:46;;;;;;;44.65;6.60;;;;;;;;;;5031153;28;20060;-85
2021/01/29 14:07:13;;;;;;;50.53;6.18;;;;;;;;;;5016605;28;20506;-84
2021/01/29 14:09:40;;;;;;;37.33;7.10;;;;;;;;;;5034078;28;20042;-83
2021/01/29 14:12:26;;;;;;;46.85;7.40;;;;;;;;;;5034398;28;20029;-84
2021/01/29 14:15:04;;;;;;;49.28;7.13;;;;;;;;;;5030354;28;20046;-85
2021/01/29 14:17:54;;;;;;;50.38;6.57;;;;;;;;;;5015844;28;20041;-85
2021/01/29 14:20:31;;;;;;;51.58;7.63;;;;;;;;;;5010885;28;20048;-87
2021/01/29 14:23:14;;;;;;;54.65;8.43;;;;;;;;;;5015445;28;20036;-86
2021/01/29 14:25:45;;;;;;;47.60;6.80;;;;;;;;;;5033846;28;20034;-85
2021/01/29 14:28:18;;;;;;;44.55;7.50;;;;;;;;;;5033536;28;20041;-87
2021/01/29 14:30:45;;;;;;;41.10;6.30;;;;;;;;;;5031099;28;20052;-84
2021/01/29 14:33:12;;;;;;;43.25;6.00;;;;;;;;;;5032949;28;20036;-86
2021/01/29 14:36:05;;;;;;;38.95;8.00;;;;;;;;;;5033501;28;20034;-87
2021/01/29 14:38:50;;;;;;;46.88;8.02;;;;;;;;;;5030397;28;20528;-84
2021/01/29 14:41:17;;;;;;;38.10;5.85;;;;;;;;;;5033656;28;20025;-83
2021/01/29 14:44:02;;;;;;;43.70;7.20;;;;;;;;;;5032987;28;20072;-86
2021/01/29 14:47:01;;;;;;;43.08;6.32;;;;;;;;;;5030865;28;20034;-85
2021/01/29 14:49:34;;;;;;;41.65;6.43;;;;;;;;;;4964762;28;20043;-85
2021/01/29 14:52:01;;;;;;;28.13;4.67;;;;;;;;;;5032527;28;20044;-87
2021/01/29 15:32:48;;;;;;;45.83;6.82;;;;;;;;;;5048626;28;20419;-84
2021/01/29 15:35:15;;;;;;;32.90;5.88;;;;;;;;;;5029892;28;20048;-84
2021/01/29 15:37:51;;;;;;;36.78;5.63;;;;;;;;;;5050839;28;20138;-84
2021/01/29 15:40:22;;;;;;;43.30;6.47;;;;;;;;;;5044680;28;20061;-84
2021/01/29 15:42:50;;;;;;;38.80;4.95;;;;;;;;;;5039729;28;20048;-85
2021/01/29 15:45:26;;;;;;;32.53;5.60;;;;;;;;;;5047948;28;20083;-85
2021/01/29 15:47:56;;;;;;;25.83;5.15;;;;;;;;;;5036100;28;20033;-83
2021/01/29 15:50:41;;;;;;;28.30;4.85;;;;;;;;;;5047127;28;20029;-84
2021/01/29 15:53:09;;;;;;;30.95;5.22;;;;;;;;;;5038206;28;20044;-84
2021/01/29 15:55:41;;;;;;;26.58;4.55;;;;;;;;;;5029670;28;20235;-84
2021/01/29 15:58:09;;;;;;;27.35;4.28;;;;;;;;;;5030142;28;20041;-83
2021/01/29 16:05:48;;;;;;;23.98;4.35;;;;;;;;;;3388761;26;20114;-84
2021/01/29 16:08:30;;;;;;;34.65;4.30;;;;;;;;;;5033775;28;20033;-85
2021/01/29 16:11:29;;;;;;;29.02;4.30;;;;;;;;;;5049998;28;20033;-85
2021/01/29 16:14:00;;;;;;;23.30;3.88;;;;;;;;;;5028444;28;20116;-85
2021/01/29 16:16:29;;;;;;;28.35;4.32;;;;;;;;;;5049868;28;20036;-85
2021/01/29 16:19:02;;;;;;;21.77;4.35;;;;;;;;;;5050579;28;20073;-85
2021/01/29 16:21:33;;;;;;;19.02;3.38;;;;;;;;;;5049154;28;20091;-85
2021/01/29 16:24:00;;;;;;;18.75;3.80;;;;;;;;;;5051589;28;20446;-85
2021/01/29 16:26:29;;;;;;;15.95;3.15;;;;;;;;;;5049616;28;20390;-84
2021/01/29 16:29:02;;;;;;;34.47;4.55;;;;;;;;;;5048961;28;20025;-85
2021/01/29 16:31:39;;;;;;;22.92;3.97;;;;;;;;;;5046563;28;20134;-85
2021/01/29 16:34:07;;;;;;;25.35;5.10;;;;;;;;;;5050969;28;20029;-85
2021/01/29 16:36:34;;;;;;;26.17;4.30;;;;;;;;;;5049183;28;20040;-85
2021/01/29 16:39:20;;;;;;;26.00;4.05;;;;;;;;;;5051662;28;20083;-84
2021/01/29 16:41:47;;;;;;;26.83;4.72;;;;;;;;;;5045100;28;20037;-85
2021/01/29 16:44:23;;;;;;;31.13;4.38;;;;;;;;;;5050540;28;20095;-85
2021/01/29 16:46:51;;;;;;;28.80;4.63;;;;;;;;;;5041499;28;20068;-84
2021/01/29 16:49:21;;;;;;;25.35;4.45;;;;;;;;;;5047622;28;20036;-85
2021/01/29 16:51:52;;;;;;;33.33;5.25;;;;;;;;;;5031985;28;20403;-84
2021/01/29 16:54:24;;;;;;;25.58;4.28;;;;;;;;;;5050742;28;20033;-85
2021/01/29 16:56:52;;;;;;;19.40;4.43;;;;;;;;;;5047037;28;20041;-85
2021/01/29 16:59:20;;;;;;;33.25;5.03;;;;;;;;;;5067353;22;20044;-84
2021/01/29 17:01:51;;;;;;;21.38;3.85;;;;;;;;;;5044043;23;20050;-84
2021/01/29 17:04:20;;;;;;;18.48;3.47;;;;;;;;;;5040345;22;20049;-84
2021/01/29 17:06:48;;;;;;;27.48;3.90;;;;;;;;;;5009316;28;20044;-85
2021/01/29 17:17:04;;;;;;;19.42;3.33;;;;;;;;;;4385379;22;20127;-84
2021/01/29 17:19:32;;;;;;;29.15;5.13;;;;;;;;;;5035167;28;20046;-84
2021/01/29 17:22:03;;;;;;;35.00;5.53;;;;;;;;;;5031995;28;20029;-85
2021/01/29 17:24:46;;;;;;;28.50;4.70;;;;;;;;;;5035103;28;20041;-84
2021/01/29 17:27:16;;;;;;;19.55;3.40;;;;;;;;;;5032433;28;20036;-84
2021/01/29 17:29:49;;;;;;;20.65;3.83;;;;;;;;;;5034471;28;20108;-84
2021/01/29 17:34:52;;;;;;;19.38;3.83;;;;;;;;;;5036244;22;20530;-84
2021/01/29 17:37:21;;;;;;;22.05;3.58;;;;;;;;;;5036494;28;20037;-85
2021/01/29 17:39:48;;;;;;;20.15;3.63;;;;;;;;;;5032485;28;20041;-84
2021/01/29 17:42:27;;;;;;;29.10;4.10;;;;;;;;;;5021823;28;20034;-84
2021/01/29 17:44:54;;;;;;;26.65;3.67;;;;;;;;;;5029870;28;20122;-84
2021/01/29 17:47:31;;;;;;;23.23;3.85;;;;;;;;;;5015020;28;20033;-85
2021/01/29 17:50:18;;;;;;;25.45;4.20;;;;;;;;;;5021980;28;20064;-84
2021/01/29 17:52:48;;;;;;;23.00;4.28;;;;;;;;;;5033412;28;20040;-84
2021/01/29 17:55:35;;;;;;;21.95;3.90;;;;;;;;;;5029521;28;20078;-85
2021/01/29 17:58:28;;;;;;;29.05;4.90;;;;;;;;;;5032871;28;20526;-84
2021/01/29 18:00:58;;;;;;;24.15;4.43;;;;;;;;;;5015322;28;20076;-84
2021/01/29 18:03:25;;;;;;;18.00;3.63;;;;;;;;;;5033881;28;20416;-84
2021/01/29 18:21:33;;;;;;;24.65;4.72;;;;;;;;;;4365252;26;20057;-84
2021/01/29 18:24:08;;;;;;;25.13;4.95;;;;;;;;;;5032315;28;20415;-84
2021/01/29 18:26:36;;;;;;;36.13;5.45;;;;;;;;;;5023160;28;20044;-85
2021/01/29 18:29:04;;;;;;;26.08;5.53;;;;;;;;;;5019909;28;20034;-85
2021/01/29 18:31:32;;;;;;;33.40;6.20;;;;;;;;;;5021039;28;20030;-84
2021/01/29 18:34:01;;;;;;;30.30;5.72;;;;;;;;;;5014622;28;20069;-85
2021/01/29 18:36:29;;;;;;;37.55;6.60;;;;;;;;;;5031512;28;20029;-84
2021/01/29 18:38:57;;;;;;;36.22;6.50;;;;;;;;;;5020149;28;20103;-85
2021/01/29 18:41:26;;;;;;;23.70;4.78;;;;;;;;;;5021050;28;20029;-85
2021/01/29 18:43:53;;;;;;;27.25;6.05;;;;;;;;;;5033984;28;20034;-85
2021/01/29 18:46:20;;;;;;;29.05;4.93;;;;;;;;;;5029040;28;20052;-84
2021/01/29 18:48:48;;;;;;;24.20;6.22;;;;;;;;;;5032636;28;20461;-84
2021/01/29 18:51:15;;;;;;;33.53;5.43;;;;;;;;;;5014985;28;20029;-84
2021/01/29 18:53:42;;;;;;;28.13;6.10;;;;;;;;;;5029512;28;20041;-85
2021/01/29 18:56:09;;;;;;;29.90;4.78;;;;;;;;;;5022615;28;20061;-85
2021/01/29 18:58:36;;;;;;;28.05;5.80;;;;;;;;;;5007781;28;20049;-85
2021/01/29 19:01:04;;;;;;;28.70;5.60;;;;;;;;;;5012887;28;20040;-84
2021/01/29 19:03:31;;;;;;;20.95;4.03;;;;;;;;;;5015221;28;20072;-85
2021/01/29 19:05:58;;;;;;;30.83;4.00;;;;;;;;;;5024093;28;20032;-85
2021/01/29 19:46:38;;;;;;;35.58;7.90;;;;;;;;;;4371202;26;20420;-85
2021/01/29 19:49:05;;;;;;;31.63;6.38;;;;;;;;;;5017499;28;20041;-85
2021/01/29 19:51:32;;;;;;;34.10;6.53;;;;;;;;;;5025446;28;20038;-85
2021/01/29 19:54:00;;;;;;;27.20;5.43;;;;;;;;;;5029965;28;20135;-85
2021/01/29 19:56:31;;;;;;;34.30;5.57;;;;;;;;;;5013952;28;20030;-86
2021/01/29 19:58:58;;;;;;;27.80;6.68;;;;;;;;;;5029369;28;20049;-87
2021/01/29 20:01:26;;;;;;;31.45;6.43;;;;;;;;;;5020507;28;20034;-83